Time;durP1;ratioP1;P1;durP2;ratioP2;P2;SDS_P1;SDS_P2;PMS_P1;PMS_P2;Temp;Humidity;BMP_temperature;BMP_pressure;BME280_temperature;BME280_humidity;BME280_pressure;Samples;Min_cycle;Max_cycle;Signal;HPM_P1;HPM_P2
2022/07/20 00:01:52;;;;;;;;;;;25.80;65.20;;;;;;6128651;23;19967;-82
2022/07/20 00:04:19;;;;;;;;;;;25.70;64.50;;;;;;6127672;23;19991;-81
2022/07/20 00:06:45;;;;;;;;;;;25.70;63.90;;;;;;6129017;23;19948;-81
2022/07/20 00:11:58;;;;;;;;;;;25.70;63.70;;;;;;6154632;23;19917;-84
2022/07/20 00:14:24;;;;;;;;;;;25.70;63.30;;;;;;6129845;23;19967;-81
2022/07/20 00:16:51;;;;;;;;;;;25.70;62.90;;;;;;6128917;23;19923;-81
2022/07/20 00:19:19;;;;;;;;;;;25.70;63.30;;;;;;6129557;23;19936;-83
2022/07/20 00:21:45;;;;;;;;;;;25.60;63.40;;;;;;6128593;23;19920;-81
2022/07/20 00:24:12;;;;;;;;;;;25.60;64.40;;;;;;6129568;23;19917;-81
2022/07/20 00:26:39;;;;;;;;;;;25.50;65.00;;;;;;6128708;23;19917;-83
2022/07/20 00:29:06;;;;;;;;;;;25.40;65.50;;;;;;6155369;23;19920;-82
2022/07/20 00:31:32;;;;;;;;;;;25.40;65.70;;;;;;6129391;23;19924;-83
2022/07/20 00:33:59;;;;;;;;;;;25.30;65.40;;;;;;6129227;23;19984;-83
2022/07/20 00:36:26;;;;;;;;;;;25.30;65.30;;;;;;6129520;23;19991;-84
2022/07/20 00:38:53;;;;;;;;;;;25.30;65.40;;;;;;6128106;23;19920;-81
2022/07/20 00:41:21;;;;;;;;;;;25.20;65.10;;;;;;6129557;23;19925;-81
2022/07/20 00:43:58;;;;;;;;;;;25.10;65.30;;;;;;6128442;23;19920;-83
2022/07/20 00:46:25;;;;;;;;;;;25.10;65.60;;;;;;6129316;23;19920;-83
2022/07/20 00:48:52;;;;;;;;;;;25.10;66.00;;;;;;6128212;23;19970;-83
2022/07/20 00:51:19;;;;;;;;;;;25.10;66.00;;;;;;6129757;23;20289;-83
2022/07/20 00:53:46;;;;;;;;;;;25.10;65.90;;;;;;6128706;23;19916;-83
2022/07/20 00:56:14;;;;;;;;;;;25.10;66.10;;;;;;6127613;23;19963;-81
2022/07/20 00:58:41;;;;;;;;;;;25.00;66.60;;;;;;6128455;23;19920;-82
2022/07/20 01:01:08;;;;;;;;;;;25.00;67.00;;;;;;6129523;23;19983;-82
2022/07/20 01:03:35;;;;;;;;;;;24.90;67.50;;;;;;6129058;23;20356;-83
2022/07/20 01:06:02;;;;;;;;;;;24.90;67.70;;;;;;6128348;23;20330;-81
2022/07/20 01:08:30;;;;;;;;;;;24.90;68.00;;;;;;6129026;23;19917;-81
2022/07/20 01:10:57;;;;;;;;;;;24.80;67.80;;;;;;6128227;23;20258;-80
2022/07/20 01:13:24;;;;;;;;;;;24.80;68.10;;;;;;6153787;23;19983;-81
2022/07/20 01:15:51;;;;;;;;;;;24.80;68.10;;;;;;6128182;23;19999;-82
2022/07/20 01:18:18;;;;;;;;;;;24.80;67.80;;;;;;6128886;23;20334;-83
2022/07/20 01:20:46;;;;;;;;;;;24.80;67.70;;;;;;6138833;23;19916;-82
2022/07/20 01:23:14;;;;;;;;;;;24.70;68.00;;;;;;6129145;23;20338;-84
2022/07/20 01:25:40;;;;;;;;;;;24.60;68.50;;;;;;6128734;23;20342;-83
2022/07/20 01:28:08;;;;;;;;;;;24.60;69.10;;;;;;6128728;23;19964;-83
2022/07/20 01:30:35;;;;;;;;;;;24.50;69.30;;;;;;6128721;23;19920;-82
2022/07/20 01:33:02;;;;;;;;;;;24.50;69.50;;;;;;6128292;23;19928;-81
2022/07/20 01:35:28;;;;;;;;;;;24.40;69.90;;;;;;6155051;23;20326;-83
2022/07/20 01:37:55;;;;;;;;;;;24.30;70.30;;;;;;6128151;23;19917;-84
2022/07/20 01:40:22;;;;;;;;;;;24.20;70.20;;;;;;6128996;23;19939;-81
2022/07/20 01:42:49;;;;;;;;;;;24.20;70.00;;;;;;6127847;23;19920;-80
2022/07/20 01:45:16;;;;;;;;;;;24.20;69.70;;;;;;6129218;23;19920;-81
2022/07/20 01:47:43;;;;;;;;;;;24.20;69.70;;;;;;6128945;23;19916;-84
2022/07/20 01:50:10;;;;;;;;;;;24.20;69.60;;;;;;6128159;23;20330;-82
2022/07/20 01:52:36;;;;;;;;;;;24.20;69.60;;;;;;6129221;23;19982;-81
2022/07/20 01:55:03;;;;;;;;;;;24.20;69.70;;;;;;6127783;23;19916;-83
2022/07/20 01:57:30;;;;;;;;;;;24.20;69.40;;;;;;6127935;23;19982;-83
2022/07/20 01:59:57;;;;;;;;;;;24.20;69.20;;;;;;6130035;23;19917;-84
2022/07/20 02:02:24;;;;;;;;;;;24.20;69.10;;;;;;6131270;23;19927;-82
2022/07/20 02:04:51;;;;;;;;;;;24.20;68.90;;;;;;6129997;23;19920;-83
2022/07/20 02:07:18;;;;;;;;;;;24.10;68.80;;;;;;6130801;23;20329;-82
2022/07/20 02:09:45;;;;;;;;;;;24.20;68.70;;;;;;6130871;23;19924;-84
2022/07/20 02:12:11;;;;;;;;;;;24.10;68.60;;;;;;6130327;23;20352;-83
2022/07/20 02:14:38;;;;;;;;;;;24.10;68.60;;;;;;6155148;23;19927;-80
2022/07/20 02:17:05;;;;;;;;;;;24.10;68.80;;;;;;6155796;23;20337;-83
2022/07/20 02:19:32;;;;;;;;;;;24.10;68.90;;;;;;6130435;23;19920;-81
2022/07/20 02:22:01;;;;;;;;;;;24.10;69.10;;;;;;6130580;23;20345;-83
2022/07/20 02:24:27;;;;;;;;;;;24.10;69.70;;;;;;6130584;23;19916;-81
2022/07/20 02:26:54;;;;;;;;;;;24.10;69.90;;;;;;6129693;23;19967;-82
2022/07/20 02:29:21;;;;;;;;;;;24.00;70.00;;;;;;6130568;23;20282;-80
2022/07/20 02:31:48;;;;;;;;;;;24.00;70.00;;;;;;6129841;23;19917;-81
2022/07/20 02:34:14;;;;;;;;;;;24.00;69.80;;;;;;6130928;23;19987;-80
2022/07/20 02:36:41;;;;;;;;;;;24.00;69.60;;;;;;6130769;23;19920;-80
2022/07/20 02:39:08;;;;;;;;;;;24.00;69.80;;;;;;6129639;23;20428;-80
2022/07/20 02:41:35;;;;;;;;;;;24.00;69.60;;;;;;6130105;23;19929;-81
2022/07/20 02:44:02;;;;;;;;;;;24.00;69.50;;;;;;6129791;23;19927;-83
2022/07/20 02:46:29;;;;;;;;;;;24.00;69.20;;;;;;6130588;23;19916;-84
2022/07/20 02:48:55;;;;;;;;;;;24.10;69.10;;;;;;6128636;23;20338;-82
2022/07/20 02:51:22;;;;;;;;;;;24.10;69.40;;;;;;6130444;23;20388;-81
2022/07/20 02:53:49;;;;;;;;;;;24.00;69.30;;;;;;6130249;23;19983;-83
2022/07/20 02:56:16;;;;;;;;;;;24.00;69.40;;;;;;6130282;23;19920;-82
2022/07/20 02:58:44;;;;;;;;;;;24.00;69.30;;;;;;6130780;23;19971;-81
2022/07/20 03:01:12;;;;;;;;;;;24.00;69.30;;;;;;6129679;23;19924;-83
2022/07/20 03:03:39;;;;;;;;;;;24.10;69.30;;;;;;6129582;23;19967;-83
2022/07/20 03:06:06;;;;;;;;;;;24.10;69.00;;;;;;6128997;23;19920;-81
2022/07/20 03:08:32;;;;;;;;;;;24.10;68.90;;;;;;6155561;23;19921;-83
2022/07/20 03:11:00;;;;;;;;;;;24.10;68.80;;;;;;6154682;23;20381;-82
2022/07/20 03:13:26;;;;;;;;;;;24.20;68.90;;;;;;6130054;23;19923;-81
2022/07/20 03:15:53;;;;;;;;;;;24.20;69.10;;;;;;6129261;23;19927;-80
2022/07/20 03:18:20;;;;;;;;;;;24.20;69.50;;;;;;6130050;23;20230;-83
2022/07/20 03:20:47;;;;;;;;;;;24.20;69.40;;;;;;6130203;23;19917;-83
2022/07/20 03:23:14;;;;;;;;;;;24.20;69.10;;;;;;6129183;23;19917;-84
2022/07/20 03:25:40;;;;;;;;;;;24.20;68.70;;;;;;6130240;23;19916;-83
2022/07/20 03:28:07;;;;;;;;;;;24.20;68.30;;;;;;6129040;23;20337;-83
2022/07/20 03:30:34;;;;;;;;;;;24.20;67.10;;;;;;6130632;23;19920;-80
2022/07/20 03:33:01;;;;;;;;;;;24.30;65.20;;;;;;6129384;23;20342;-83
2022/07/20 03:35:27;;;;;;;;;;;24.40;63.40;;;;;;6129813;23;19923;-80
2022/07/20 03:37:55;;;;;;;;;;;24.50;62.90;;;;;;6129170;23;19920;-81
2022/07/20 03:40:22;;;;;;;;;;;24.50;62.40;;;;;;6130201;23;20400;-83
2022/07/20 03:42:49;;;;;;;;;;;24.60;62.00;;;;;;6129894;23;19992;-84
2022/07/20 03:45:15;;;;;;;;;;;24.70;61.70;;;;;;6127533;23;19971;-83
2022/07/20 03:47:42;;;;;;;;;;;24.80;61.50;;;;;;6130123;23;20334;-84
2022/07/20 03:50:09;;;;;;;;;;;24.80;61.20;;;;;;6129268;23;19991;-83
2022/07/20 03:52:36;;;;;;;;;;;24.90;60.90;;;;;;6129789;23;20326;-84
2022/07/20 03:55:03;;;;;;;;;;;24.90;60.60;;;;;;6129161;23;19987;-83
2022/07/20 03:57:29;;;;;;;;;;;25.00;60.50;;;;;;6129737;23;19971;-81
2022/07/20 03:59:56;;;;;;;;;;;25.00;60.10;;;;;;6128934;23;20334;-82
2022/07/20 04:02:23;;;;;;;;;;;25.00;60.00;;;;;;6128048;23;19917;-83
2022/07/20 04:04:50;;;;;;;;;;;25.10;59.80;;;;;;6129305;23;19948;-80
2022/07/20 04:07:17;;;;;;;;;;;25.10;59.70;;;;;;6128842;23;19916;-83
2022/07/20 04:09:44;;;;;;;;;;;25.10;59.60;;;;;;6129417;23;19923;-84
2022/07/20 04:12:13;;;;;;;;;;;25.10;59.30;;;;;;6127796;23;19938;-82
2022/07/20 04:14:40;;;;;;;;;;;25.10;59.20;;;;;;6154947;23;20334;-80
2022/07/20 04:17:07;;;;;;;;;;;25.20;59.10;;;;;;6128684;23;20363;-84
2022/07/20 04:19:35;;;;;;;;;;;25.20;59.00;;;;;;6128929;23;19921;-80
2022/07/20 04:22:01;;;;;;;;;;;25.20;58.80;;;;;;6154112;23;20342;-83
2022/07/20 04:24:28;;;;;;;;;;;25.30;58.60;;;;;;6129696;23;19921;-81
2022/07/20 04:26:55;;;;;;;;;;;25.30;58.60;;;;;;6129524;23;19920;-82
2022/07/20 04:29:22;;;;;;;;;;;25.30;58.30;;;;;;6128781;23;19951;-84
2022/07/20 04:31:50;;;;;;;;;;;25.40;58.30;;;;;;6129794;23;19927;-84
2022/07/20 04:34:17;;;;;;;;;;;25.40;58.20;;;;;;6154250;23;19927;-81
2022/07/20 04:36:43;;;;;;;;;;;25.40;57.90;;;;;;6129738;23;19947;-82
2022/07/20 04:39:10;;;;;;;;;;;25.40;57.80;;;;;;6128160;23;19971;-82
2022/07/20 04:41:37;;;;;;;;;;;25.40;57.70;;;;;;6154546;23;19927;-81
2022/07/20 04:44:04;;;;;;;;;;;25.50;57.80;;;;;;6128203;23;19998;-80
2022/07/20 04:46:31;;;;;;;;;;;25.50;57.70;;;;;;6128479;23;19924;-81
2022/07/20 04:48:58;;;;;;;;;;;25.50;57.70;;;;;;6127977;23;19916;-81
2022/07/20 04:51:25;;;;;;;;;;;25.50;57.40;;;;;;6153631;23;19916;-80
2022/07/20 04:53:52;;;;;;;;;;;25.50;57.20;;;;;;6129174;23;19927;-80
2022/07/20 04:56:18;;;;;;;;;;;25.50;57.40;;;;;;6128033;23;20401;-81
2022/07/20 04:58:52;;;;;;;;;;;25.50;57.20;;;;;;6129188;23;19916;-80
2022/07/20 05:01:20;;;;;;;;;;;25.60;57.00;;;;;;6127503;23;19920;-81
2022/07/20 05:03:47;;;;;;;;;;;25.60;57.10;;;;;;6129243;23;19916;-80
2022/07/20 05:06:14;;;;;;;;;;;25.60;57.40;;;;;;6128825;23;19983;-81
2022/07/20 05:08:41;;;;;;;;;;;25.60;57.20;;;;;;6127970;23;19916;-82
2022/07/20 05:11:08;;;;;;;;;;;25.60;57.10;;;;;;6123411;23;19946;-82
2022/07/20 05:13:37;;;;;;;;;;;25.60;57.20;;;;;;6128113;23;20334;-80
2022/07/20 05:16:04;;;;;;;;;;;25.60;57.40;;;;;;6127182;23;19940;-80
2022/07/20 05:18:31;;;;;;;;;;;25.60;57.30;;;;;;6126158;23;19930;-81
2022/07/20 05:20:58;;;;;;;;;;;25.60;57.20;;;;;;6128633;23;19967;-80
2022/07/20 05:23:25;;;;;;;;;;;25.70;57.10;;;;;;6128070;23;19920;-80
2022/07/20 05:25:52;;;;;;;;;;;25.70;57.50;;;;;;6129008;23;19920;-80
2022/07/20 05:28:20;;;;;;;;;;;25.70;58.40;;;;;;6127676;23;19916;-80
2022/07/20 05:30:48;;;;;;;;;;;25.70;58.70;;;;;;6128365;23;19916;-80
2022/07/20 05:33:14;;;;;;;;;;;25.60;61.30;;;;;;6127918;23;20259;-81
2022/07/20 05:35:41;;;;;;;;;;;25.60;61.60;;;;;;6128948;23;20356;-82
2022/07/20 05:38:08;;;;;;;;;;;25.60;62.90;;;;;;6153142;23;19917;-82
2022/07/20 05:40:35;;;;;;;;;;;25.60;63.10;;;;;;6127628;23;20305;-82
2022/07/20 05:43:02;;;;;;;;;;;25.60;62.60;;;;;;6126098;23;19921;-80
2022/07/20 05:45:28;;;;;;;;;;;25.70;62.30;;;;;;6128467;23;20388;-81
2022/07/20 05:47:55;;;;;;;;;;;25.80;62.10;;;;;;6127690;23;20337;-81
2022/07/20 05:50:22;;;;;;;;;;;25.80;62.80;;;;;;6127828;23;19955;-80
2022/07/20 05:52:50;;;;;;;;;;;25.90;63.10;;;;;;6128478;23;20235;-83
2022/07/20 05:55:17;;;;;;;;;;;26.00;62.80;;;;;;6128070;23;19923;-81
2022/07/20 05:57:44;;;;;;;;;;;26.10;62.80;;;;;;6128726;23;19916;-81
2022/07/20 06:00:11;;;;;;;;;;;26.10;61.60;;;;;;6128186;23;20292;-81
2022/07/20 06:02:38;;;;;;;;;;;26.20;60.60;;;;;;6129208;23;19940;-83
2022/07/20 06:05:05;;;;;;;;;;;26.30;60.10;;;;;;6128040;23;19920;-83
2022/07/20 06:07:31;;;;;;;;;;;26.40;59.80;;;;;;6154551;23;19920;-82
2022/07/20 06:09:58;;;;;;;;;;;26.50;58.70;;;;;;6128942;23;20324;-81
2022/07/20 06:12:25;;;;;;;;;;;26.50;58.10;;;;;;6128087;23;19920;-81
2022/07/20 06:14:52;;;;;;;;;;;26.60;57.40;;;;;;6129184;23;19916;-81
2022/07/20 06:17:19;;;;;;;;;;;26.70;56.50;;;;;;6127888;23;19916;-81
2022/07/20 06:19:46;;;;;;;;;;;26.70;56.20;;;;;;6128481;23;19916;-81
2022/07/20 06:22:12;;;;;;;;;;;26.80;56.60;;;;;;6128174;23;19916;-81
2022/07/20 06:24:39;;;;;;;;;;;26.80;57.30;;;;;;6128610;23;20389;-82
2022/07/20 06:27:22;;;;;;;;;;;26.90;57.90;;;;;;6131783;23;19924;-81
2022/07/20 06:29:49;;;;;;;;;;;26.90;57.90;;;;;;6128657;23;19916;-81
2022/07/20 06:32:16;;;;;;;;;;;26.90;57.80;;;;;;6153675;23;19916;-81
2022/07/20 06:34:43;;;;;;;;;;;27.00;57.70;;;;;;6128805;23;19972;-83
2022/07/20 06:37:10;;;;;;;;;;;27.00;57.80;;;;;;6127948;23;19978;-81
2022/07/20 06:39:37;;;;;;;;;;;27.00;58.00;;;;;;6128490;23;19916;-81
2022/07/20 06:42:12;;;;;;;;;;;27.10;58.20;;;;;;6122996;23;19917;-82
2022/07/20 06:44:39;;;;;;;;;;;27.10;58.30;;;;;;6123976;23;19948;-82
2022/07/20 06:47:05;;;;;;;;;;;27.10;58.30;;;;;;6125962;23;19967;-82
2022/07/20 06:49:32;;;;;;;;;;;27.20;58.10;;;;;;6124798;23;19968;-81
2022/07/20 06:52:00;;;;;;;;;;;27.20;57.90;;;;;;6127302;23;19917;-82
2022/07/20 06:54:26;;;;;;;;;;;27.30;58.00;;;;;;6124612;23;19916;-82
2022/07/20 06:56:53;;;;;;;;;;;27.40;58.00;;;;;;6125237;23;19920;-83
2022/07/20 06:59:28;;;;;;;;;;;27.50;57.50;;;;;;6124633;23;19917;-82
2022/07/20 07:02:08;;;;;;;;;;;27.60;56.80;;;;;;6125569;23;19925;-82
2022/07/20 07:04:38;;;;;;;;;;;27.70;55.90;;;;;;6124617;23;19988;-82
2022/07/20 07:07:05;;;;;;;;;;;27.80;54.90;;;;;;6125561;23;20342;-83
2022/07/20 07:09:37;;;;;;;;;;;27.90;54.30;;;;;;6124856;23;21780;-81
2022/07/20 07:12:07;;;;;;;;;;;28.10;53.60;;;;;;6125184;23;19920;-82
2022/07/20 07:14:34;;;;;;;;;;;28.30;53.10;;;;;;6123978;23;19988;-82
2022/07/20 07:17:01;;;;;;;;;;;28.50;52.30;;;;;;6125385;23;19917;-81
2022/07/20 07:19:28;;;;;;;;;;;28.80;52.10;;;;;;6124890;23;19924;-82
2022/07/20 07:21:54;;;;;;;;;;;29.00;51.20;;;;;;6125543;23;20234;-82
2022/07/20 07:24:21;;;;;;;;;;;29.20;49.80;;;;;;6124096;23;19976;-81
2022/07/20 07:26:48;;;;;;;;;;;29.30;47.90;;;;;;6125412;23;19944;-82
2022/07/20 07:29:15;;;;;;;;;;;29.40;48.20;;;;;;6123998;23;19917;-81
2022/07/20 07:31:42;;;;;;;;;;;29.50;47.70;;;;;;6124721;23;19920;-80
2022/07/20 07:34:09;;;;;;;;;;;29.60;47.60;;;;;;6124554;23;20015;-82
2022/07/20 07:36:35;;;;;;;;;;;29.70;47.70;;;;;;6124397;23;28163;-81
2022/07/20 07:39:04;;;;;;;;;;;29.70;47.00;;;;;;6125259;23;19920;-82
2022/07/20 07:41:31;;;;;;;;;;;29.70;46.90;;;;;;6128583;23;19991;-83
2022/07/20 07:43:58;;;;;;;;;;;29.70;46.90;;;;;;6130247;23;20253;-83
2022/07/20 07:46:25;;;;;;;;;;;29.70;45.00;;;;;;6154871;23;19916;-82
2022/07/20 07:48:52;;;;;;;;;;;29.60;44.40;;;;;;6130076;23;19926;-82
2022/07/20 07:51:20;;;;;;;;;;;29.70;45.20;;;;;;6129705;23;19921;-81
2022/07/20 07:53:46;;;;;;;;;;;29.70;45.70;;;;;;6129789;23;19921;-81
2022/07/20 07:56:13;;;;;;;;;;;29.70;47.20;;;;;;6129711;23;19928;-81
2022/07/20 07:58:40;;;;;;;;;;;29.70;48.10;;;;;;6128916;23;19916;-81
2022/07/20 08:01:07;;;;;;;;;;;29.50;48.40;;;;;;6129884;23;19924;-81
2022/07/20 08:03:34;;;;;;;;;;;29.50;49.50;;;;;;6129077;23;20238;-81
2022/07/20 08:06:01;;;;;;;;;;;29.40;50.00;;;;;;6130122;23;20355;-81
2022/07/20 08:08:28;;;;;;;;;;;29.50;49.30;;;;;;6154573;23;19921;-81
2022/07/20 08:10:55;;;;;;;;;;;29.60;46.10;;;;;;6155733;23;19916;-82
2022/07/20 08:13:22;;;;;;;;;;;29.70;45.40;;;;;;6128756;23;19924;-81
2022/07/20 08:15:49;;;;;;;;;;;29.90;46.10;;;;;;6129634;23;20253;-81
2022/07/20 08:18:18;;;;;;;;;;;30.10;46.30;;;;;;6130328;23;19916;-81
2022/07/20 08:20:45;;;;;;;;;;;30.30;46.00;;;;;;6128981;23;20226;-81
2022/07/20 08:23:12;;;;;;;;;;;30.50;44.70;;;;;;6129722;23;19991;-80
2022/07/20 08:25:39;;;;;;;;;;;30.70;43.90;;;;;;6128832;23;19944;-82
2022/07/20 08:28:14;;;;;;;;;;;30.90;43.40;;;;;;6129914;23;19916;-82
2022/07/20 08:30:41;;;;;;;;;;;31.00;43.00;;;;;;6128910;23;19917;-82
2022/07/20 08:33:20;;;;;;;;;;;31.10;44.10;;;;;;6132144;23;19916;-81
2022/07/20 08:35:46;;;;;;;;;;;31.30;43.40;;;;;;6154124;23;19928;-82
2022/07/20 08:38:13;;;;;;;;;;;31.50;41.80;;;;;;6155249;23;19920;-81
2022/07/20 08:40:40;;;;;;;;;;;31.60;41.50;;;;;;6128646;23;20392;-81
2022/07/20 08:43:07;;;;;;;;;;;31.70;40.70;;;;;;6129468;23;19916;-81
2022/07/20 08:45:35;;;;;;;;;;;31.80;40.80;;;;;;6128824;23;19948;-83
2022/07/20 08:48:03;;;;;;;;;;;31.90;40.80;;;;;;6129569;23;19928;-81
2022/07/20 08:50:31;;;;;;;;;;;31.90;40.60;;;;;;6128526;23;19987;-82
2022/07/20 08:52:58;;;;;;;;;;;32.10;40.30;;;;;;6129610;23;20250;-82
2022/07/20 08:55:26;;;;;;;;;;;32.10;40.60;;;;;;6129286;23;19916;-81
2022/07/20 08:57:53;;;;;;;;;;;32.20;38.10;;;;;;6128859;23;19916;-81
2022/07/20 09:00:19;;;;;;;;;;;32.10;38.10;;;;;;6129354;23;19920;-81
2022/07/20 09:03:03;;;;;;;;;;;32.10;38.40;;;;;;6128417;23;19971;-81
2022/07/20 09:05:31;;;;;;;;;;;32.10;38.40;;;;;;6128244;23;19923;-83
2022/07/20 09:07:58;;;;;;;;;;;32.00;39.40;;;;;;6129190;23;20326;-81
2022/07/20 09:10:30;;;;;;;;;;;32.10;39.60;;;;;;6129295;23;20257;-82
2022/07/20 09:13:06;;;;;;;;;;;32.10;38.60;;;;;;6128497;23;20399;-82
2022/07/20 09:15:50;;;;;;;;;;;32.10;39.60;;;;;;6129062;23;20387;-82
2022/07/20 09:18:24;;;;;;;;;;;32.30;39.50;;;;;;6129271;23;19952;-83
2022/07/20 09:20:53;;;;;;;;;;;32.30;39.20;;;;;;6123334;23;19968;-81
2022/07/20 09:23:21;;;;;;;;;;;32.40;38.90;;;;;;6123850;23;20389;-80
2022/07/20 09:25:49;;;;;;;;;;;32.50;37.80;;;;;;6099395;23;20333;-83
2022/07/20 09:28:18;;;;;;;;;;;32.60;37.10;;;;;;6099589;23;20433;-82
2022/07/20 09:30:52;;;;;;;;;;;32.60;36.60;;;;;;6123288;23;20330;-82
2022/07/20 09:33:27;;;;;;;;;;;32.70;36.90;;;;;;6100055;23;20360;-82
2022/07/20 09:35:54;;;;;;;;;;;32.80;36.60;;;;;;6099099;23;20298;-81
2022/07/20 09:38:27;;;;;;;;;;;32.80;35.90;;;;;;6100149;23;19924;-81
2022/07/20 09:40:54;;;;;;;;;;;32.90;35.10;;;;;;6098867;23;19925;-81
2022/07/20 09:43:34;;;;;;;;;;;33.10;33.60;;;;;;6101444;23;19921;-82
2022/07/20 09:46:12;;;;;;;;;;;33.20;34.00;;;;;;6123294;23;20250;-82
2022/07/20 09:48:46;;;;;;;;;;;33.40;33.60;;;;;;6098863;23;19921;-81
2022/07/20 09:51:33;;;;;;;;;;;33.40;33.40;;;;;;6124020;23;19976;-82
2022/07/20 09:54:04;;;;;;;;;;;33.50;32.70;;;;;;6099041;23;20247;-81
2022/07/20 09:56:31;;;;;;;;;;;33.60;33.10;;;;;;6099975;23;19988;-80
2022/07/20 09:58:58;;;;;;;;;;;33.50;32.70;;;;;;6123842;23;19956;-80
2022/07/20 10:01:27;;;;;;;;;;;33.40;33.00;;;;;;6099857;23;19968;-80
2022/07/20 10:03:54;;;;;;;;;;;33.40;32.90;;;;;;6098981;23;19969;-81
2022/07/20 10:06:22;;;;;;;;;;;33.50;32.50;;;;;;6099775;23;19921;-81
2022/07/20 10:08:55;;;;;;;;;;;33.60;32.20;;;;;;6124509;23;19925;-82
2022/07/20 10:11:23;;;;;;;;;;;33.60;32.30;;;;;;6099645;23;19925;-82
2022/07/20 10:13:52;;;;;;;;;;;33.70;31.80;;;;;;6098990;23;19921;-81
2022/07/20 10:16:34;;;;;;;;;;;33.60;31.70;;;;;;6100005;23;19980;-80
2022/07/20 10:19:02;;;;;;;;;;;33.60;32.00;;;;;;6098848;23;19952;-82
2022/07/20 10:21:42;;;;;;;;;;;33.60;32.50;;;;;;6101862;23;20298;-81
2022/07/20 10:24:30;;;;;;;;;;;33.70;32.80;;;;;;6130162;23;19921;-82
2022/07/20 10:27:03;;;;;;;;;;;33.90;32.10;;;;;;6124914;23;19925;-81
2022/07/20 10:29:31;;;;;;;;;;;34.00;31.70;;;;;;6125672;23;19983;-81
2022/07/20 10:32:20;;;;;;;;;;;34.20;30.70;;;;;;6100666;23;19946;-81
2022/07/20 10:34:48;;;;;;;;;;;34.40;30.60;;;;;;6100505;23;19961;-80
2022/07/20 10:37:33;;;;;;;;;;;34.60;30.20;;;;;;6101704;23;20330;-82
2022/07/20 10:40:11;;;;;;;;;;;34.70;30.10;;;;;;6124771;23;20338;-80
2022/07/20 10:42:42;;;;;;;;;;;34.70;29.30;;;;;;6101380;23;19976;-81
2022/07/20 10:45:09;;;;;;;;;;;34.60;28.60;;;;;;6100794;23;19981;-83
2022/07/20 10:47:38;;;;;;;;;;;34.40;29.70;;;;;;6126792;23;19921;-83
2022/07/20 10:50:06;;;;;;;;;;;34.40;29.90;;;;;;6124483;23;19983;-81
2022/07/20 10:52:34;;;;;;;;;;;34.60;29.60;;;;;;6101382;23;19928;-83
2022/07/20 10:55:01;;;;;;;;;;;34.70;29.30;;;;;;6100633;23;20409;-83
2022/07/20 10:57:28;;;;;;;;;;;34.70;28.90;;;;;;6100623;23;19921;-81
2022/07/20 11:00:06;;;;;;;;;;;34.70;28.80;;;;;;6124990;23;19925;-81
2022/07/20 11:02:33;;;;;;;;;;;34.60;29.00;;;;;;6100227;23;19928;-81
2022/07/20 11:05:00;;;;;;;;;;;34.60;29.70;;;;;;6099576;23;19921;-82
2022/07/20 11:07:28;;;;;;;;;;;34.80;29.60;;;;;;6099483;23;19924;-81
2022/07/20 11:09:55;;;;;;;;;;;34.90;28.90;;;;;;6100383;23;20349;-83
2022/07/20 11:12:26;;;;;;;;;;;35.00;29.00;;;;;;6101085;23;20342;-81
2022/07/20 11:14:53;;;;;;;;;;;34.90;28.80;;;;;;6100138;23;19921;-80
2022/07/20 11:17:20;;;;;;;;;;;34.90;29.50;;;;;;6101287;23;19921;-80
2022/07/20 11:19:48;;;;;;;;;;;35.00;30.00;;;;;;6098836;23;20000;-80
2022/07/20 11:22:15;;;;;;;;;;;35.20;30.90;;;;;;6101294;23;19921;-80
2022/07/20 11:24:42;;;;;;;;;;;35.40;28.90;;;;;;6124451;23;19991;-80
2022/07/20 11:27:15;;;;;;;;;;;35.50;28.70;;;;;;6125492;23;19921;-82
2022/07/20 11:29:51;;;;;;;;;;;35.60;29.20;;;;;;6099598;23;19922;-83
2022/07/20 11:32:18;;;;;;;;;;;35.70;28.30;;;;;;6126571;23;20511;-80
2022/07/20 11:34:46;;;;;;;;;;;35.60;28.60;;;;;;6129929;23;20344;-81
2022/07/20 11:37:17;;;;;;;;;;;35.70;28.80;;;;;;6128047;23;19928;-80
2022/07/20 11:39:44;;;;;;;;;;;35.60;27.50;;;;;;6129303;23;19955;-80
2022/07/20 11:42:12;;;;;;;;;;;35.70;29.10;;;;;;6123532;23;19921;-80
2022/07/20 11:44:39;;;;;;;;;;;35.90;29.50;;;;;;6124661;23;20247;-81
2022/07/20 11:47:06;;;;;;;;;;;36.10;28.10;;;;;;6124129;23;20401;-81
2022/07/20 11:49:33;;;;;;;;;;;36.10;28.40;;;;;;6125904;23;19921;-82
2022/07/20 11:52:05;;;;;;;;;;;36.40;28.60;;;;;;6122589;23;19925;-81
2022/07/20 11:54:35;;;;;;;;;;;36.50;27.80;;;;;;6125670;23;19929;-83
2022/07/20 11:57:03;;;;;;;;;;;36.60;28.40;;;;;;6123793;23;20338;-82
2022/07/20 11:59:30;;;;;;;;;;;36.80;28.20;;;;;;6124669;23;19921;-82
2022/07/20 12:01:57;;;;;;;;;;;37.10;27.80;;;;;;6123627;23;19925;-82
2022/07/20 12:04:24;;;;;;;;;;;37.20;27.20;;;;;;6124363;23;19921;-80
2022/07/20 12:06:53;;;;;;;;;;;37.30;27.00;;;;;;6123945;23;20040;-81
2022/07/20 12:09:21;;;;;;;;;;;37.30;26.80;;;;;;6123402;23;19927;-82
2022/07/20 12:11:59;;;;;;;;;;;37.20;27.00;;;;;;6123464;23;19925;-82
2022/07/20 12:14:27;;;;;;;;;;;37.20;27.40;;;;;;6111452;23;19921;-80
2022/07/20 12:17:15;;;;;;;;;;;37.20;28.10;;;;;;6124959;23;20000;-80
2022/07/20 12:19:43;;;;;;;;;;;37.10;27.30;;;;;;6124125;23;19925;-82
2022/07/20 12:22:14;;;;;;;;;;;37.10;27.50;;;;;;6123220;23;19920;-82
2022/07/20 12:24:58;;;;;;;;;;;37.10;26.70;;;;;;6124406;23;19991;-82
2022/07/20 12:27:26;;;;;;;;;;;36.90;27.20;;;;;;6123895;23;19925;-82
2022/07/20 12:29:54;;;;;;;;;;;36.80;27.70;;;;;;6123605;23;19976;-82
2022/07/20 12:32:33;;;;;;;;;;;36.60;27.90;;;;;;6123098;23;19932;-82
2022/07/20 12:35:01;;;;;;;;;;;36.70;28.50;;;;;;6124403;23;19928;-82
2022/07/20 12:37:50;;;;;;;;;;;37.00;29.10;;;;;;6123416;23;19985;-81
2022/07/20 12:40:32;;;;;;;;;;;37.20;28.30;;;;;;6123117;23;19921;-83
2022/07/20 12:43:00;;;;;;;;;;;37.40;26.70;;;;;;6147081;23;19920;-82
2022/07/20 12:45:27;;;;;;;;;;;37.40;27.70;;;;;;6153807;23;19921;-80
2022/07/20 12:47:53;;;;;;;;;;;37.60;27.40;;;;;;6128802;23;19925;-80
2022/07/20 12:50:32;;;;;;;;;;;37.70;27.80;;;;;;6130561;23;19931;-81
2022/07/20 12:52:59;;;;;;;;;;;37.70;27.00;;;;;;6128828;23;20257;-80
2022/07/20 12:55:26;;;;;;;;;;;37.60;27.10;;;;;;6128132;23;19920;-80
2022/07/20 12:57:53;;;;;;;;;;;37.60;26.70;;;;;;6129190;23;19925;-80
2022/07/20 13:00:20;;;;;;;;;;;37.50;26.70;;;;;;6153892;23;20400;-82
2022/07/20 13:02:46;;;;;;;;;;;37.60;26.50;;;;;;6128678;23;20293;-80
2022/07/20 13:05:13;;;;;;;;;;;37.60;27.20;;;;;;6128145;23;19921;-83
2022/07/20 13:07:40;;;;;;;;;;;37.70;27.20;;;;;;6128617;23;19925;-80
2022/07/20 13:10:07;;;;;;;;;;;37.80;27.60;;;;;;6129062;23;19925;-82
2022/07/20 13:12:34;;;;;;;;;;;37.70;27.40;;;;;;6128169;23;20393;-79
2022/07/20 13:15:01;;;;;;;;;;;37.50;27.50;;;;;;6128675;23;19943;-80
2022/07/20 13:17:47;;;;;;;;;;;37.50;27.90;;;;;;6153616;23;20516;-82
2022/07/20 13:20:14;;;;;;;;;;;37.70;27.40;;;;;;6154645;23;20234;-79
2022/07/20 13:22:41;;;;;;;;;;;37.80;27.80;;;;;;6127819;23;19921;-81
2022/07/20 13:25:08;;;;;;;;;;;38.00;27.10;;;;;;6128720;23;19920;-81
2022/07/20 13:27:35;;;;;;;;;;;37.90;26.90;;;;;;6127968;23;19925;-81
2022/07/20 13:30:03;;;;;;;;;;;37.70;26.10;;;;;;6128948;23;19931;-81
2022/07/20 13:32:32;;;;;;;;;;;37.20;27.30;;;;;;6127557;23;19924;-80
2022/07/20 13:34:59;;;;;;;;;;;37.20;27.80;;;;;;6129060;23;20250;-81
2022/07/20 13:37:26;;;;;;;;;;;37.30;27.70;;;;;;6127175;23;19932;-82
2022/07/20 13:39:53;;;;;;;;;;;37.40;27.20;;;;;;6133871;23;19921;-80
2022/07/20 13:42:20;;;;;;;;;;;37.40;26.80;;;;;;6123372;23;19921;-80
2022/07/20 13:44:47;;;;;;;;;;;37.50;27.00;;;;;;6129985;23;19924;-82
2022/07/20 13:47:14;;;;;;;;;;;37.80;27.20;;;;;;6127483;23;19921;-80
2022/07/20 13:49:42;;;;;;;;;;;38.00;27.50;;;;;;6125619;23;19921;-81
2022/07/20 13:52:10;;;;;;;;;;;38.20;26.70;;;;;;6133270;23;19924;-81
2022/07/20 13:54:49;;;;;;;;;;;38.10;27.00;;;;;;6125120;23;19932;-81
2022/07/20 13:57:16;;;;;;;;;;;38.00;27.00;;;;;;6134839;23;19925;-81
2022/07/20 13:59:43;;;;;;;;;;;38.00;27.20;;;;;;6123100;23;19976;-81
2022/07/20 14:02:10;;;;;;;;;;;37.70;27.00;;;;;;6125714;23;20335;-81
2022/07/20 14:04:37;;;;;;;;;;;37.60;27.50;;;;;;6122329;23;20346;-81
2022/07/20 14:07:04;;;;;;;;;;;37.40;26.80;;;;;;6123049;23;19921;-80
2022/07/20 14:09:31;;;;;;;;;;;37.30;27.80;;;;;;6124093;23;19925;-79
2022/07/20 14:11:58;;;;;;;;;;;37.20;27.20;;;;;;6123137;23;19920;-80
2022/07/20 14:14:25;;;;;;;;;;;37.20;27.40;;;;;;6125659;23;20258;-81
2022/07/20 14:16:52;;;;;;;;;;;37.30;28.10;;;;;;6123002;23;19929;-80
2022/07/20 14:19:19;;;;;;;;;;;37.40;27.20;;;;;;6127117;23;19921;-81
2022/07/20 14:21:46;;;;;;;;;;;37.30;27.40;;;;;;6127214;23;20258;-80
2022/07/20 14:24:13;;;;;;;;;;;37.30;27.30;;;;;;6124624;23;19921;-81
2022/07/20 14:26:40;;;;;;;;;;;37.50;27.10;;;;;;6127067;23;19921;-80